Imperial County Airport
KIPL : now visible

Airfield :











YOU CAN JOIN US ON...

 
LOGIN :

Register | Disclaimer

   EN    FR    IT 

 









Legend :    VFR   Marginal VFR   IFR   Intensive IFR   Very Intensive IFR
Visi :
Ceiling :
>= 8 km
>= 3000ft
5 to 8 km
1000 to 3000 ft
1500m to 5 km
500 to 1000 ft
800 to 1500m
200 to 500 ft
< 800m
< 200 ft
Symbols :   Thunderstorms  Fog  Heavy snow  Heavy precipitations  Wind > 20 kt






- Airport Elevation : -54 ft


KIPL - Imperial County

CURRENT METAR :
  • 232053Z AUTO VRB06KT 10SM CLR 39/14 A2977 RMK AO2 SLP083 T03890144 58010

EXPIRED METARs :
  • 231953Z AUTO 10008KT 10SM CLR 37/17 A2979 RMK AO2 SLP089 T03720167
  • 231853Z AUTO 10SM CLR 36/18 A2980 RMK AO2 SLP092 T03610178

TAF KIPL
Valid from the 23 at 18:00 until the 24 at 18:00 UTC


231741Z 2318/2418 12009KT P6SM SCT100 BKN120 BKN200
FM232000 11010KT P6SM VCSH FEW100 SCT120
FM232200 14008G17KT P6SM VCSH SCT100 SCT120
TEMPO 2322/2401 VRB15G30KT 5SM -TSRA BKN100CB
FM240100 29005KT P6SM FEW100 FEW250
KZLA FIR / North America



MET'MAP, your aeronautical weather chart ! - Copyright ORBIFLY December 2007 - Disclaimer

ORBIFLY MET'MAP TEAM :

Programming & Development : Alexandra Zaïnal
Concept & original design : Baudouin d'Aumeries
Assistance for programming : Marc-Olivier Méhu
Technical & hardware support : Manuel Goepfert

Contact : metmap@orbifly.com




SOURCES & CREDITS :

   NOAA       Earth
Advisory